sensor_id;sensor_type;location;lat;lon;timestamp;temperature;humidity
7738;DHT22;29398;45.328;5.558;2022-10-16T00:00:51;16.30;99.90
7738;DHT22;29398;45.328;5.558;2022-10-16T00:01:52;16.20;99.90
7738;DHT22;29398;45.328;5.558;2022-10-16T00:02:54;16.20;99.90
7738;DHT22;29398;45.328;5.558;2022-10-16T00:03:58;16.20;99.90
7738;DHT22;29398;45.328;5.558;2022-10-16T00:05:00;16.20;99.90
7738;DHT22;29398;45.328;5.558;2022-10-16T00:06:01;16.20;99.90
7738;DHT22;29398;45.328;5.558;2022-10-16T00:07:03;16.10;99.90
7738;DHT22;29398;45.328;5.558;2022-10-16T00:08:05;16.10;99.90
7738;DHT22;29398;45.328;5.558;2022-10-16T00:09:07;16.10;99.90
7738;DHT22;29398;45.328;5.558;2022-10-16T00:10:09;16.10;99.90
7738;DHT22;29398;45.328;5.558;2022-10-16T00:11:13;16.00;99.90
7738;DHT22;29398;45.328;5.558;2022-10-16T00:12:15;16.00;99.90
7738;DHT22;29398;45.328;5.558;2022-10-16T00:13:16;15.90;99.90
7738;DHT22;29398;45.328;5.558;2022-10-16T00:14:20;15.90;99.90
7738;DHT22;29398;45.328;5.558;2022-10-16T00:15:22;15.90;99.90
7738;DHT22;29398;45.328;5.558;2022-10-16T00:16:23;15.90;99.90
7738;DHT22;29398;45.328;5.558;2022-10-16T00:17:25;15.90;99.90
7738;DHT22;29398;45.328;5.558;2022-10-16T00:18:27;15.80;99.90
7738;DHT22;29398;45.328;5.558;2022-10-16T00:19:30;15.80;99.90
7738;DHT22;29398;45.328;5.558;2022-10-16T00:20:34;15.70;99.90
7738;DHT22;29398;45.328;5.558;2022-10-16T00:21:37;15.60;99.90
7738;DHT22;29398;45.328;5.558;2022-10-16T00:22:39;15.60;99.90
7738;DHT22;29398;45.328;5.558;2022-10-16T00:23:41;15.60;99.90
7738;DHT22;29398;45.328;5.558;2022-10-16T00:24:43;15.60;99.90
7738;DHT22;29398;45.328;5.558;2022-10-16T00:25:44;15.60;99.90
7738;DHT22;29398;45.328;5.558;2022-10-16T00:26:49;15.60;99.90
7738;DHT22;29398;45.328;5.558;2022-10-16T00:27:50;15.60;99.90
7738;DHT22;29398;45.328;5.558;2022-10-16T00:28:52;15.60;99.90
7738;DHT22;29398;45.328;5.558;2022-10-16T00:29:53;15.50;99.90
7738;DHT22;29398;45.328;5.558;2022-10-16T00:30:55;15.50;99.90
7738;DHT22;29398;45.328;5.558;2022-10-16T00:31:56;15.50;99.90
7738;DHT22;29398;45.328;5.558;2022-10-16T00:32:58;15.50;99.90
7738;DHT22;29398;45.328;5.558;2022-10-16T00:34:00;15.40;99.90
7738;DHT22;29398;45.328;5.558;2022-10-16T00:35:04;15.50;99.90
7738;DHT22;29398;45.328;5.558;2022-10-16T00:36:06;15.50;99.90
7738;DHT22;29398;45.328;5.558;2022-10-16T00:37:08;15.50;99.90
7738;DHT22;29398;45.328;5.558;2022-10-16T00:38:09;15.50;99.90
7738;DHT22;29398;45.328;5.558;2022-10-16T00:39:11;15.40;99.90
7738;DHT22;29398;45.328;5.558;2022-10-16T00:40:12;15.40;99.90
7738;DHT22;29398;45.328;5.558;2022-10-16T00:41:16;15.40;99.90
7738;DHT22;29398;45.328;5.558;2022-10-16T00:42:18;15.40;99.90
7738;DHT22;29398;45.328;5.558;2022-10-16T00:43:37;15.40;99.90
7738;DHT22;29398;45.328;5.558;2022-10-16T00:44:44;15.40;99.90
7738;DHT22;29398;45.328;5.558;2022-10-16T00:45:47;15.40;99.90
7738;DHT22;29398;45.328;5.558;2022-10-16T00:46:48;15.30;99.90
7738;DHT22;29398;45.328;5.558;2022-10-16T00:47:52;15.30;99.90
7738;DHT22;29398;45.328;5.558;2022-10-16T00:48:57;15.30;99.90
7738;DHT22;29398;45.328;5.558;2022-10-16T00:50:08;15.30;99.90
7738;DHT22;29398;45.328;5.558;2022-10-16T00:51:10;15.30;99.90
7738;DHT22;29398;45.328;5.558;2022-10-16T00:52:13;15.30;99.90
7738;DHT22;29398;45.328;5.558;2022-10-16T00:53:16;15.30;99.90
7738;DHT22;29398;45.328;5.558;2022-10-16T00:54:22;15.30;99.90
7738;DHT22;29398;45.328;5.558;2022-10-16T00:55:24;15.30;99.90
7738;DHT22;29398;45.328;5.558;2022-10-16T00:56:27;15.30;99.90
7738;DHT22;29398;45.328;5.558;2022-10-16T00:57:28;15.30;99.90
7738;DHT22;29398;45.328;5.558;2022-10-16T00:58:31;15.30;99.90
7738;DHT22;29398;45.328;5.558;2022-10-16T00:59:34;15.30;99.90
7738;DHT22;29398;45.328;5.558;2022-10-16T01:00:37;15.30;99.90
7738;DHT22;29398;45.328;5.558;2022-10-16T01:01:38;15.30;99.90
7738;DHT22;29398;45.328;5.558;2022-10-16T01:02:40;15.30;99.90
7738;DHT22;29398;45.328;5.558;2022-10-16T01:03:41;15.30;99.90
7738;DHT22;29398;45.328;5.558;2022-10-16T01:04:45;15.30;99.90
7738;DHT22;29398;45.328;5.558;2022-10-16T01:05:55;15.30;99.90
7738;DHT22;29398;45.328;5.558;2022-10-16T01:07:06;15.30;99.90
7738;DHT22;29398;45.328;5.558;2022-10-16T01:08:13;15.30;99.90
7738;DHT22;29398;45.328;5.558;2022-10-16T01:09:21;15.20;99.90
7738;DHT22;29398;45.328;5.558;2022-10-16T01:10:30;15.30;99.90
7738;DHT22;29398;45.328;5.558;2022-10-16T01:11:37;15.30;99.90
7738;DHT22;29398;45.328;5.558;2022-10-16T01:12:41;15.30;99.90
7738;DHT22;29398;45.328;5.558;2022-10-16T01:13:50;15.30;99.90
7738;DHT22;29398;45.328;5.558;2022-10-16T01:14:54;15.30;99.90
7738;DHT22;29398;45.328;5.558;2022-10-16T01:16:02;15.30;99.90
7738;DHT22;29398;45.328;5.558;2022-10-16T01:17:08;15.30;99.90
7738;DHT22;29398;45.328;5.558;2022-10-16T01:18:16;15.30;99.90
7738;DHT22;29398;45.328;5.558;2022-10-16T01:19:26;15.20;99.90
7738;DHT22;29398;45.328;5.558;2022-10-16T01:20:33;15.30;99.90
7738;DHT22;29398;45.328;5.558;2022-10-16T01:21:39;15.40;99.90
7738;DHT22;29398;45.328;5.558;2022-10-16T01:22:59;15.40;99.90
7738;DHT22;29398;45.328;5.558;2022-10-16T01:24:08;15.20;99.90
7738;DHT22;29398;45.328;5.558;2022-10-16T01:25:16;15.30;99.90
7738;DHT22;29398;45.328;5.558;2022-10-16T01:26:36;15.30;99.90
7738;DHT22;29398;45.328;5.558;2022-10-16T01:27:46;15.30;99.90
7738;DHT22;29398;45.328;5.558;2022-10-16T01:28:52;15.30;99.90
7738;DHT22;29398;45.328;5.558;2022-10-16T01:29:58;15.30;99.90
7738;DHT22;29398;45.328;5.558;2022-10-16T01:31:04;15.30;99.90
7738;DHT22;29398;45.328;5.558;2022-10-16T01:32:11;15.30;99.90
7738;DHT22;29398;45.328;5.558;2022-10-16T01:33:18;15.30;99.90
7738;DHT22;29398;45.328;5.558;2022-10-16T01:34:25;15.30;99.90
7738;DHT22;29398;45.328;5.558;2022-10-16T01:35:32;15.30;99.90
7738;DHT22;29398;45.328;5.558;2022-10-16T01:36:40;15.30;99.90
7738;DHT22;29398;45.328;5.558;2022-10-16T01:37:48;15.20;99.90
7738;DHT22;29398;45.328;5.558;2022-10-16T01:38:53;15.20;99.90
7738;DHT22;29398;45.328;5.558;2022-10-16T01:39:59;15.20;99.90
7738;DHT22;29398;45.328;5.558;2022-10-16T01:41:06;15.20;99.90
7738;DHT22;29398;45.328;5.558;2022-10-16T01:42:12;15.20;99.90
7738;DHT22;29398;45.328;5.558;2022-10-16T01:43:20;15.10;99.90
7738;DHT22;29398;45.328;5.558;2022-10-16T01:44:26;15.10;99.90
7738;DHT22;29398;45.328;5.558;2022-10-16T01:45:31;15.10;99.90
7738;DHT22;29398;45.328;5.558;2022-10-16T01:46:35;15.00;99.90
7738;DHT22;29398;45.328;5.558;2022-10-16T01:47:39;14.90;99.90
7738;DHT22;29398;45.328;5.558;2022-10-16T01:48:41;14.70;99.90
7738;DHT22;29398;45.328;5.558;2022-10-16T01:49:43;14.70;99.90
7738;DHT22;29398;45.328;5.558;2022-10-16T01:50:59;14.70;99.90
7738;DHT22;29398;45.328;5.558;2022-10-16T01:52:05;15.50;99.90
7738;DHT22;29398;45.328;5.558;2022-10-16T01:53:08;14.80;99.90
7738;DHT22;29398;45.328;5.558;2022-10-16T01:54:14;14.80;99.90
7738;DHT22;29398;45.328;5.558;2022-10-16T01:55:20;14.80;99.90
7738;DHT22;29398;45.328;5.558;2022-10-16T01:56:24;14.80;99.90
7738;DHT22;29398;45.328;5.558;2022-10-16T01:57:27;14.80;99.90
7738;DHT22;29398;45.328;5.558;2022-10-16T01:58:33;14.80;99.90
7738;DHT22;29398;45.328;5.558;2022-10-16T01:59:38;14.80;99.90
7738;DHT22;29398;45.328;5.558;2022-10-16T02:00:44;14.90;99.90
7738;DHT22;29398;45.328;5.558;2022-10-16T02:01:50;14.90;99.90
7738;DHT22;29398;45.328;5.558;2022-10-16T02:02:54;14.90;99.90
7738;DHT22;29398;45.328;5.558;2022-10-16T02:03:58;14.90;99.90
7738;DHT22;29398;45.328;5.558;2022-10-16T02:05:05;14.90;99.90
7738;DHT22;29398;45.328;5.558;2022-10-16T02:06:09;14.90;99.90
7738;DHT22;29398;45.328;5.558;2022-10-16T02:07:12;14.90;99.90
7738;DHT22;29398;45.328;5.558;2022-10-16T02:08:14;15.00;99.90
7738;DHT22;29398;45.328;5.558;2022-10-16T02:09:16;15.00;99.90
7738;DHT22;29398;45.328;5.558;2022-10-16T02:10:17;15.00;99.90
7738;DHT22;29398;45.328;5.558;2022-10-16T02:11:19;15.00;99.90
7738;DHT22;29398;45.328;5.558;2022-10-16T02:12:24;15.00;99.90
7738;DHT22;29398;45.328;5.558;2022-10-16T02:13:33;15.00;99.90
7738;DHT22;29398;45.328;5.558;2022-10-16T02:14:37;15.00;99.90
7738;DHT22;29398;45.328;5.558;2022-10-16T02:15:40;15.00;99.90
7738;DHT22;29398;45.328;5.558;2022-10-16T02:16:44;15.00;99.90
7738;DHT22;29398;45.328;5.558;2022-10-16T02:17:46;15.00;99.90
7738;DHT22;29398;45.328;5.558;2022-10-16T02:18:47;15.00;99.90
7738;DHT22;29398;45.328;5.558;2022-10-16T02:19:51;15.00;99.90
7738;DHT22;29398;45.328;5.558;2022-10-16T02:20:56;15.10;99.90
7738;DHT22;29398;45.328;5.558;2022-10-16T02:22:02;15.10;99.90
7738;DHT22;29398;45.328;5.558;2022-10-16T02:23:04;15.10;99.90
7738;DHT22;29398;45.328;5.558;2022-10-16T02:24:11;15.10;99.90
7738;DHT22;29398;45.328;5.558;2022-10-16T02:25:19;15.10;99.90
7738;DHT22;29398;45.328;5.558;2022-10-16T02:26:26;15.10;99.90
7738;DHT22;29398;45.328;5.558;2022-10-16T02:27:33;15.10;99.90
7738;DHT22;29398;45.328;5.558;2022-10-16T02:28:43;15.20;99.90
7738;DHT22;29398;45.328;5.558;2022-10-16T02:29:49;15.20;99.90
7738;DHT22;29398;45.328;5.558;2022-10-16T02:30:57;15.20;99.90
7738;DHT22;29398;45.328;5.558;2022-10-16T02:32:01;15.20;99.90
7738;DHT22;29398;45.328;5.558;2022-10-16T02:33:07;15.10;99.90
7738;DHT22;29398;45.328;5.558;2022-10-16T02:34:10;15.10;99.90
7738;DHT22;29398;45.328;5.558;2022-10-16T02:35:15;15.20;99.90
7738;DHT22;29398;45.328;5.558;2022-10-16T02:36:17;15.20;99.90
7738;DHT22;29398;45.328;5.558;2022-10-16T02:37:20;15.10;99.90
7738;DHT22;29398;45.328;5.558;2022-10-16T02:38:21;15.10;99.90
7738;DHT22;29398;45.328;5.558;2022-10-16T02:39:25;15.10;99.90
7738;DHT22;29398;45.328;5.558;2022-10-16T02:40:27;15.10;99.90
7738;DHT22;29398;45.328;5.558;2022-10-16T02:41:30;15.20;99.90
7738;DHT22;29398;45.328;5.558;2022-10-16T02:42:34;15.20;99.90
7738;DHT22;29398;45.328;5.558;2022-10-16T02:43:38;15.20;99.90
7738;DHT22;29398;45.328;5.558;2022-10-16T02:44:39;15.20;99.90
7738;DHT22;29398;45.328;5.558;2022-10-16T02:45:41;15.10;99.90
7738;DHT22;29398;45.328;5.558;2022-10-16T02:46:42;15.10;99.90
7738;DHT22;29398;45.328;5.558;2022-10-16T02:47:45;15.20;99.90
7738;DHT22;29398;45.328;5.558;2022-10-16T02:48:46;15.20;99.90
7738;DHT22;29398;45.328;5.558;2022-10-16T02:49:48;15.10;99.90
7738;DHT22;29398;45.328;5.558;2022-10-16T02:50:49;15.20;99.90
7738;DHT22;29398;45.328;5.558;2022-10-16T02:51:51;15.20;99.90
7738;DHT22;29398;45.328;5.558;2022-10-16T02:52:52;15.10;99.90
7738;DHT22;29398;45.328;5.558;2022-10-16T02:53:55;15.10;99.90
7738;DHT22;29398;45.328;5.558;2022-10-16T02:54:56;15.10;99.90
7738;DHT22;29398;45.328;5.558;2022-10-16T02:55:58;15.10;99.90
7738;DHT22;29398;45.328;5.558;2022-10-16T02:56:59;15.10;99.90
7738;DHT22;29398;45.328;5.558;2022-10-16T02:58:01;15.10;99.90
7738;DHT22;29398;45.328;5.558;2022-10-16T02:59:03;15.10;99.90
7738;DHT22;29398;45.328;5.558;2022-10-16T03:00:06;15.20;99.90
7738;DHT22;29398;45.328;5.558;2022-10-16T03:01:07;15.20;99.90
7738;DHT22;29398;45.328;5.558;2022-10-16T03:02:10;15.30;99.90
7738;DHT22;29398;45.328;5.558;2022-10-16T03:03:11;15.30;99.90
7738;DHT22;29398;45.328;5.558;2022-10-16T03:04:13;15.30;99.90
7738;DHT22;29398;45.328;5.558;2022-10-16T03:05:14;15.20;99.90
7738;DHT22;29398;45.328;5.558;2022-10-16T03:06:16;15.20;99.90
7738;DHT22;29398;45.328;5.558;2022-10-16T03:07:17;15.20;99.90
7738;DHT22;29398;45.328;5.558;2022-10-16T03:08:19;15.30;99.90
7738;DHT22;29398;45.328;5.558;2022-10-16T03:09:24;15.20;99.90
7738;DHT22;29398;45.328;5.558;2022-10-16T03:10:26;15.20;99.90
7738;DHT22;29398;45.328;5.558;2022-10-16T03:11:27;15.20;99.90
7738;DHT22;29398;45.328;5.558;2022-10-16T03:12:29;15.20;99.90
7738;DHT22;29398;45.328;5.558;2022-10-16T03:13:31;15.20;99.90
7738;DHT22;29398;45.328;5.558;2022-10-16T03:14:35;15.20;99.90
7738;DHT22;29398;45.328;5.558;2022-10-16T03:15:36;15.30;99.90
7738;DHT22;29398;45.328;5.558;2022-10-16T03:16:38;15.20;99.90
7738;DHT22;29398;45.328;5.558;2022-10-16T03:17:39;15.20;99.90
7738;DHT22;29398;45.328;5.558;2022-10-16T03:18:41;15.20;99.90
7738;DHT22;29398;45.328;5.558;2022-10-16T03:19:42;15.20;99.90
7738;DHT22;29398;45.328;5.558;2022-10-16T03:20:44;15.20;99.90
7738;DHT22;29398;45.328;5.558;2022-10-16T03:21:45;15.10;99.90
7738;DHT22;29398;45.328;5.558;2022-10-16T03:22:47;15.10;99.90
7738;DHT22;29398;45.328;5.558;2022-10-16T03:23:48;15.00;99.90
7738;DHT22;29398;45.328;5.558;2022-10-16T03:24:50;15.10;99.90
7738;DHT22;29398;45.328;5.558;2022-10-16T03:25:51;15.10;99.90
7738;DHT22;29398;45.328;5.558;2022-10-16T03:26:53;15.10;99.90
7738;DHT22;29398;45.328;5.558;2022-10-16T03:27:54;15.60;99.90
7738;DHT22;29398;45.328;5.558;2022-10-16T03:28:56;15.00;99.90
7738;DHT22;29398;45.328;5.558;2022-10-16T03:29:58;15.10;99.90
7738;DHT22;29398;45.328;5.558;2022-10-16T03:31:00;15.10;99.90
7738;DHT22;29398;45.328;5.558;2022-10-16T03:32:01;15.10;99.90
7738;DHT22;29398;45.328;5.558;2022-10-16T03:33:03;15.20;99.90
7738;DHT22;29398;45.328;5.558;2022-10-16T03:34:04;15.10;99.90
7738;DHT22;29398;45.328;5.558;2022-10-16T03:35:07;15.10;99.90
7738;DHT22;29398;45.328;5.558;2022-10-16T03:36:08;15.00;99.90
7738;DHT22;29398;45.328;5.558;2022-10-16T03:37:10;15.10;99.90
7738;DHT22;29398;45.328;5.558;2022-10-16T03:38:11;15.10;99.90
7738;DHT22;29398;45.328;5.558;2022-10-16T03:39:13;15.10;99.90
7738;DHT22;29398;45.328;5.558;2022-10-16T03:40:15;15.00;99.90
7738;DHT22;29398;45.328;5.558;2022-10-16T03:41:17;15.10;99.90
7738;DHT22;29398;45.328;5.558;2022-10-16T03:42:18;15.10;99.90
7738;DHT22;29398;45.328;5.558;2022-10-16T03:43:20;15.20;99.90
7738;DHT22;29398;45.328;5.558;2022-10-16T03:44:21;15.20;99.90
7738;DHT22;29398;45.328;5.558;2022-10-16T03:45:25;15.10;99.90
7738;DHT22;29398;45.328;5.558;2022-10-16T03:46:26;15.10;99.90
7738;DHT22;29398;45.328;5.558;2022-10-16T03:47:28;15.20;99.90
7738;DHT22;29398;45.328;5.558;2022-10-16T03:48:30;15.20;99.90
7738;DHT22;29398;45.328;5.558;2022-10-16T03:49:32;15.10;99.90
7738;DHT22;29398;45.328;5.558;2022-10-16T03:50:33;15.30;99.90
7738;DHT22;29398;45.328;5.558;2022-10-16T03:51:35;15.10;99.90
7738;DHT22;29398;45.328;5.558;2022-10-16T03:52:36;15.10;99.90
7738;DHT22;29398;45.328;5.558;2022-10-16T03:53:38;15.10;99.90
7738;DHT22;29398;45.328;5.558;2022-10-16T03:54:39;15.10;99.90
7738;DHT22;29398;45.328;5.558;2022-10-16T03:55:42;15.10;99.90
7738;DHT22;29398;45.328;5.558;2022-10-16T03:56:43;15.10;99.90
7738;DHT22;29398;45.328;5.558;2022-10-16T03:57:45;15.00;99.90
7738;DHT22;29398;45.328;5.558;2022-10-16T03:58:46;15.10;99.90
7738;DHT22;29398;45.328;5.558;2022-10-16T03:59:48;15.10;99.90
7738;DHT22;29398;45.328;5.558;2022-10-16T04:00:50;15.10;99.90
7738;DHT22;29398;45.328;5.558;2022-10-16T04:01:53;15.10;99.90
7738;DHT22;29398;45.328;5.558;2022-10-16T04:02:54;15.10;99.90
7738;DHT22;29398;45.328;5.558;2022-10-16T04:03:56;15.20;99.90
7738;DHT22;29398;45.328;5.558;2022-10-16T04:04:57;15.20;99.90
7738;DHT22;29398;45.328;5.558;2022-10-16T04:05:59;15.10;99.90
7738;DHT22;29398;45.328;5.558;2022-10-16T04:07:00;15.10;99.90
7738;DHT22;29398;45.328;5.558;2022-10-16T04:08:02;15.10;99.90
7738;DHT22;29398;45.328;5.558;2022-10-16T04:09:03;15.10;99.90
7738;DHT22;29398;45.328;5.558;2022-10-16T04:10:06;15.10;99.90
7738;DHT22;29398;45.328;5.558;2022-10-16T04:11:07;15.10;99.90
7738;DHT22;29398;45.328;5.558;2022-10-16T04:12:09;15.10;99.90
7738;DHT22;29398;45.328;5.558;2022-10-16T04:13:10;15.10;99.90
7738;DHT22;29398;45.328;5.558;2022-10-16T04:14:12;15.10;99.90
7738;DHT22;29398;45.328;5.558;2022-10-16T04:15:14;15.10;99.90
7738;DHT22;29398;45.328;5.558;2022-10-16T04:16:17;15.20;99.90
7738;DHT22;29398;45.328;5.558;2022-10-16T04:17:18;15.20;99.90
7738;DHT22;29398;45.328;5.558;2022-10-16T04:18:20;15.10;99.90
7738;DHT22;29398;45.328;5.558;2022-10-16T04:19:21;15.20;99.90
7738;DHT22;29398;45.328;5.558;2022-10-16T04:20:23;15.10;99.90
7738;DHT22;29398;45.328;5.558;2022-10-16T04:21:24;15.10;99.90
7738;DHT22;29398;45.328;5.558;2022-10-16T04:22:26;15.10;99.90
7738;DHT22;29398;45.328;5.558;2022-10-16T04:23:27;15.10;99.90
7738;DHT22;29398;45.328;5.558;2022-10-16T04:24:29;15.10;99.90
7738;DHT22;29398;45.328;5.558;2022-10-16T04:25:30;15.10;99.90
7738;DHT22;29398;45.328;5.558;2022-10-16T04:26:33;15.00;99.90
7738;DHT22;29398;45.328;5.558;2022-10-16T04:27:34;15.10;99.90
7738;DHT22;29398;45.328;5.558;2022-10-16T04:28:36;15.10;99.90
7738;DHT22;29398;45.328;5.558;2022-10-16T04:29:37;15.20;99.90
7738;DHT22;29398;45.328;5.558;2022-10-16T04:30:39;15.10;99.90
7738;DHT22;29398;45.328;5.558;2022-10-16T04:31:41;15.20;99.90
7738;DHT22;29398;45.328;5.558;2022-10-16T04:32:47;15.10;99.90
7738;DHT22;29398;45.328;5.558;2022-10-16T04:33:49;15.10;99.90
7738;DHT22;29398;45.328;5.558;2022-10-16T04:34:50;15.10;99.90
7738;DHT22;29398;45.328;5.558;2022-10-16T04:35:56;15.10;99.90
7738;DHT22;29398;45.328;5.558;2022-10-16T04:36:57;15.10;99.90
7738;DHT22;29398;45.328;5.558;2022-10-16T04:37:59;15.20;99.90
7738;DHT22;29398;45.328;5.558;2022-10-16T04:39:00;15.20;99.90
7738;DHT22;29398;45.328;5.558;2022-10-16T04:40:03;15.20;99.90
7738;DHT22;29398;45.328;5.558;2022-10-16T04:41:04;15.10;99.90
7738;DHT22;29398;45.328;5.558;2022-10-16T04:42:07;15.10;99.90
7738;DHT22;29398;45.328;5.558;2022-10-16T04:43:09;15.10;99.90
7738;DHT22;29398;45.328;5.558;2022-10-16T04:44:11;15.10;99.90
7738;DHT22;29398;45.328;5.558;2022-10-16T04:45:12;15.10;99.90
7738;DHT22;29398;45.328;5.558;2022-10-16T04:46:14;15.10;99.90
7738;DHT22;29398;45.328;5.558;2022-10-16T04:47:17;15.10;99.90
7738;DHT22;29398;45.328;5.558;2022-10-16T04:48:19;15.00;99.90
7738;DHT22;29398;45.328;5.558;2022-10-16T04:49:20;15.10;99.90
7738;DHT22;29398;45.328;5.558;2022-10-16T04:50:22;15.10;99.90
7738;DHT22;29398;45.328;5.558;2022-10-16T04:51:39;15.00;99.90
7738;DHT22;29398;45.328;5.558;2022-10-16T04:52:41;15.00;99.90
7738;DHT22;29398;45.328;5.558;2022-10-16T04:53:42;15.00;99.90
7738;DHT22;29398;45.328;5.558;2022-10-16T04:54:44;15.10;99.90
7738;DHT22;29398;45.328;5.558;2022-10-16T04:55:45;15.00;99.90
7738;DHT22;29398;45.328;5.558;2022-10-16T04:56:47;15.00;99.90
7738;DHT22;29398;45.328;5.558;2022-10-16T04:57:51;15.10;99.90
7738;DHT22;29398;45.328;5.558;2022-10-16T04:58:53;15.00;99.90
7738;DHT22;29398;45.328;5.558;2022-10-16T04:59:54;15.00;99.90
7738;DHT22;29398;45.328;5.558;2022-10-16T05:00:56;15.10;99.90
7738;DHT22;29398;45.328;5.558;2022-10-16T05:01:57;15.10;99.90
7738;DHT22;29398;45.328;5.558;2022-10-16T05:03:00;15.00;99.90
7738;DHT22;29398;45.328;5.558;2022-10-16T05:04:02;15.10;99.90
7738;DHT22;29398;45.328;5.558;2022-10-16T05:05:04;14.90;99.90
7738;DHT22;29398;45.328;5.558;2022-10-16T05:06:06;15.00;99.90
7738;DHT22;29398;45.328;5.558;2022-10-16T05:07:08;15.00;99.90
7738;DHT22;29398;45.328;5.558;2022-10-16T05:08:09;15.00;99.90
7738;DHT22;29398;45.328;5.558;2022-10-16T05:09:11;15.00;99.90
7738;DHT22;29398;45.328;5.558;2022-10-16T05:10:13;15.10;99.90
7738;DHT22;29398;45.328;5.558;2022-10-16T05:11:15;15.20;99.90
7738;DHT22;29398;45.328;5.558;2022-10-16T05:12:16;14.90;99.90
7738;DHT22;29398;45.328;5.558;2022-10-16T05:13:18;15.10;99.90
7738;DHT22;29398;45.328;5.558;2022-10-16T05:14:19;15.00;99.90
7738;DHT22;29398;45.328;5.558;2022-10-16T05:15:21;15.10;99.90
7738;DHT22;29398;45.328;5.558;2022-10-16T05:16:22;15.00;99.90
7738;DHT22;29398;45.328;5.558;2022-10-16T05:17:24;15.00;99.90
7738;DHT22;29398;45.328;5.558;2022-10-16T05:18:26;14.90;99.90
7738;DHT22;29398;45.328;5.558;2022-10-16T05:19:28;15.00;99.90
7738;DHT22;29398;45.328;5.558;2022-10-16T05:20:29;15.10;99.90
7738;DHT22;29398;45.328;5.558;2022-10-16T05:21:31;15.00;99.90
7738;DHT22;29398;45.328;5.558;2022-10-16T05:22:36;15.10;99.90
7738;DHT22;29398;45.328;5.558;2022-10-16T05:23:37;15.00;99.90
7738;DHT22;29398;45.328;5.558;2022-10-16T05:24:39;15.00;99.90
7738;DHT22;29398;45.328;5.558;2022-10-16T05:25:40;14.90;99.90
7738;DHT22;29398;45.328;5.558;2022-10-16T05:26:42;15.10;99.90
7738;DHT22;29398;45.328;5.558;2022-10-16T05:27:46;15.00;99.90
7738;DHT22;29398;45.328;5.558;2022-10-16T05:28:49;15.00;99.90
7738;DHT22;29398;45.328;5.558;2022-10-16T05:29:50;14.90;99.90
7738;DHT22;29398;45.328;5.558;2022-10-16T05:30:53;15.00;99.90
7738;DHT22;29398;45.328;5.558;2022-10-16T05:31:54;15.00;99.90
7738;DHT22;29398;45.328;5.558;2022-10-16T05:32:56;15.10;99.90
7738;DHT22;29398;45.328;5.558;2022-10-16T05:33:59;14.90;99.90
7738;DHT22;29398;45.328;5.558;2022-10-16T05:35:02;15.00;99.90
7738;DHT22;29398;45.328;5.558;2022-10-16T05:36:04;15.00;99.90
7738;DHT22;29398;45.328;5.558;2022-10-16T05:37:08;14.90;99.90
7738;DHT22;29398;45.328;5.558;2022-10-16T05:38:09;14.90;99.90
7738;DHT22;29398;45.328;5.558;2022-10-16T05:39:12;14.90;99.90
7738;DHT22;29398;45.328;5.558;2022-10-16T05:40:14;14.80;99.90
7738;DHT22;29398;45.328;5.558;2022-10-16T05:41:17;14.90;99.90
7738;DHT22;29398;45.328;5.558;2022-10-16T05:42:22;14.90;99.90
7738;DHT22;29398;45.328;5.558;2022-10-16T05:43:24;14.80;99.90
7738;DHT22;29398;45.328;5.558;2022-10-16T05:44:25;14.90;99.90
7738;DHT22;29398;45.328;5.558;2022-10-16T05:45:27;14.90;99.90
7738;DHT22;29398;45.328;5.558;2022-10-16T05:46:28;14.90;99.90
7738;DHT22;29398;45.328;5.558;2022-10-16T05:47:30;14.90;99.90
7738;DHT22;29398;45.328;5.558;2022-10-16T05:48:32;14.90;99.90
7738;DHT22;29398;45.328;5.558;2022-10-16T05:49:36;15.00;99.90
7738;DHT22;29398;45.328;5.558;2022-10-16T05:50:37;14.80;99.90
7738;DHT22;29398;45.328;5.558;2022-10-16T05:51:39;14.80;99.90
7738;DHT22;29398;45.328;5.558;2022-10-16T05:52:41;14.80;99.90
7738;DHT22;29398;45.328;5.558;2022-10-16T05:53:42;14.80;99.90
7738;DHT22;29398;45.328;5.558;2022-10-16T05:54:44;14.90;99.90
7738;DHT22;29398;45.328;5.558;2022-10-16T05:55:52;14.90;99.90
7738;DHT22;29398;45.328;5.558;2022-10-16T05:56:54;14.80;99.90
7738;DHT22;29398;45.328;5.558;2022-10-16T05:57:55;14.90;99.90
7738;DHT22;29398;45.328;5.558;2022-10-16T05:58:57;14.80;99.90
7738;DHT22;29398;45.328;5.558;2022-10-16T05:59:58;14.90;99.90
7738;DHT22;29398;45.328;5.558;2022-10-16T06:01:02;14.80;99.90
7738;DHT22;29398;45.328;5.558;2022-10-16T06:02:03;14.80;99.90
7738;DHT22;29398;45.328;5.558;2022-10-16T06:03:05;14.90;99.90
7738;DHT22;29398;45.328;5.558;2022-10-16T06:04:08;14.80;99.90
7738;DHT22;29398;45.328;5.558;2022-10-16T06:05:11;14.90;99.90
7738;DHT22;29398;45.328;5.558;2022-10-16T06:06:14;14.70;99.90
7738;DHT22;29398;45.328;5.558;2022-10-16T06:07:16;14.80;99.90
7738;DHT22;29398;45.328;5.558;2022-10-16T06:08:17;14.80;99.90
7738;DHT22;29398;45.328;5.558;2022-10-16T06:09:20;14.80;99.90
7738;DHT22;29398;45.328;5.558;2022-10-16T06:10:22;14.80;99.90
7738;DHT22;29398;45.328;5.558;2022-10-16T06:11:24;14.80;99.90
7738;DHT22;29398;45.328;5.558;2022-10-16T06:12:26;14.80;99.90
7738;DHT22;29398;45.328;5.558;2022-10-16T06:13:27;14.60;99.90
7738;DHT22;29398;45.328;5.558;2022-10-16T06:14:29;14.60;99.90
7738;DHT22;29398;45.328;5.558;2022-10-16T06:15:30;14.60;99.90
7738;DHT22;29398;45.328;5.558;2022-10-16T06:16:33;14.60;99.90
7738;DHT22;29398;45.328;5.558;2022-10-16T06:17:35;14.50;99.90
7738;DHT22;29398;45.328;5.558;2022-10-16T06:18:37;14.50;99.90
7738;DHT22;29398;45.328;5.558;2022-10-16T06:19:38;14.50;99.90
7738;DHT22;29398;45.328;5.558;2022-10-16T06:20:41;14.40;99.90
7738;DHT22;29398;45.328;5.558;2022-10-16T06:21:42;14.40;99.90
7738;DHT22;29398;45.328;5.558;2022-10-16T06:22:44;14.40;99.90
7738;DHT22;29398;45.328;5.558;2022-10-16T06:23:45;14.40;99.90
7738;DHT22;29398;45.328;5.558;2022-10-16T06:24:47;14.30;99.90
7738;DHT22;29398;45.328;5.558;2022-10-16T06:25:49;14.30;99.90
7738;DHT22;29398;45.328;5.558;2022-10-16T06:26:52;14.40;99.90
7738;DHT22;29398;45.328;5.558;2022-10-16T06:27:53;14.40;99.90
7738;DHT22;29398;45.328;5.558;2022-10-16T06:28:56;14.40;99.90
7738;DHT22;29398;45.328;5.558;2022-10-16T06:29:57;14.30;99.90
7738;DHT22;29398;45.328;5.558;2022-10-16T06:30:59;14.30;99.90
7738;DHT22;29398;45.328;5.558;2022-10-16T06:32:01;14.40;99.90
7738;DHT22;29398;45.328;5.558;2022-10-16T06:33:03;14.30;99.90
7738;DHT22;29398;45.328;5.558;2022-10-16T06:34:04;14.40;99.90
7738;DHT22;29398;45.328;5.558;2022-10-16T06:35:09;14.30;99.90
7738;DHT22;29398;45.328;5.558;2022-10-16T06:36:13;14.40;99.90
7738;DHT22;29398;45.328;5.558;2022-10-16T06:37:16;14.30;99.90
7738;DHT22;29398;45.328;5.558;2022-10-16T06:38:16;14.40;99.90
7738;DHT22;29398;45.328;5.558;2022-10-16T06:39:18;14.30;99.90
7738;DHT22;29398;45.328;5.558;2022-10-16T06:40:20;14.30;99.90
7738;DHT22;29398;45.328;5.558;2022-10-16T06:41:22;14.40;99.90
7738;DHT22;29398;45.328;5.558;2022-10-16T06:42:24;14.30;99.90
7738;DHT22;29398;45.328;5.558;2022-10-16T06:43:26;14.30;99.90
7738;DHT22;29398;45.328;5.558;2022-10-16T06:44:28;14.00;99.90